createdAt,value
2019-01-29T00:00:14.571Z,85.82
2019-01-29T00:02:41.945Z,85.70
2019-01-29T00:05:09.338Z,85.56
2019-01-29T00:07:36.709Z,85.82
2019-01-29T00:10:04.786Z,86.11
2019-01-29T00:12:32.165Z,86.04
2019-01-29T00:14:59.515Z,85.94
2019-01-29T00:17:26.917Z,86.00
2019-01-29T00:19:54.291Z,85.93
2019-01-29T00:22:21.625Z,86.04
2019-01-29T00:24:49.123Z,85.75
2019-01-29T00:27:16.463Z,85.71
2019-01-29T00:29:43.807Z,85.67
2019-01-29T00:32:11.205Z,85.43
2019-01-29T00:34:38.587Z,85.30
2019-01-29T00:37:05.950Z,85.31
2019-01-29T00:39:33.664Z,85.28
2019-01-29T00:42:01.014Z,85.09
2019-01-29T00:44:28.365Z,84.98
2019-01-29T00:46:55.759Z,84.79
2019-01-29T00:49:23.226Z,84.70
2019-01-29T00:51:50.668Z,84.21
2019-01-29T00:54:18.309Z,84.15
2019-01-29T00:56:45.654Z,83.96
2019-01-29T00:59:13.016Z,83.70
2019-01-29T01:01:40.429Z,83.51
2019-01-29T01:04:07.778Z,83.27
2019-01-29T01:06:35.514Z,83.18
2019-01-29T01:09:04.808Z,83.20
2019-01-29T01:11:32.195Z,83.17
2019-01-29T01:13:59.614Z,83.39
2019-01-29T01:16:27.070Z,83.49
2019-01-29T01:18:54.715Z,83.69
2019-01-29T01:21:22.066Z,83.66
2019-01-29T01:23:49.414Z,84.00
2019-01-29T01:26:16.806Z,84.29
2019-01-29T01:28:44.530Z,84.48
2019-01-29T01:31:12.209Z,84.35
2019-01-29T01:33:39.629Z,84.39
2019-01-29T01:36:06.997Z,84.58
2019-01-29T01:38:34.411Z,84.66
2019-01-29T01:41:01.761Z,84.78
2019-01-29T01:43:29.135Z,84.70
2019-01-29T01:45:56.485Z,84.68
2019-01-29T01:48:23.881Z,84.53
2019-01-29T01:50:51.255Z,84.47
2019-01-29T01:53:18.601Z,84.68
2019-01-29T01:55:45.949Z,84.90
2019-01-29T01:58:13.327Z,84.89
2019-01-29T02:00:40.727Z,84.93
2019-01-29T02:03:08.113Z,84.85
2019-01-29T02:05:35.507Z,85.10
2019-01-29T02:08:02.857Z,85.15
2019-01-29T02:10:30.694Z,85.14
2019-01-29T02:12:58.066Z,85.19
2019-01-29T02:15:25.407Z,85.14
2019-01-29T02:17:53.075Z,84.88
2019-01-29T02:20:20.758Z,84.95
2019-01-29T02:22:48.101Z,84.83
2019-01-29T02:25:15.483Z,84.81
2019-01-29T02:27:42.818Z,85.01
2019-01-29T02:30:12.091Z,84.92
2019-01-29T02:32:39.445Z,84.92
2019-01-29T02:35:06.900Z,84.97
2019-01-29T02:37:34.536Z,84.91
2019-01-29T02:40:01.907Z,84.98
2019-01-29T02:42:29.399Z,85.14
2019-01-29T02:44:56.861Z,85.12
2019-01-29T02:47:24.218Z,85.01
2019-01-29T02:49:51.599Z,85.10
2019-01-29T02:52:18.998Z,84.91
2019-01-29T02:54:46.339Z,84.42
2019-01-29T02:57:13.762Z,84.21
2019-01-29T02:59:41.208Z,84.31
2019-01-29T03:02:08.827Z,84.34
2019-01-29T03:04:36.228Z,84.27
2019-01-29T03:07:03.689Z,84.19
2019-01-29T03:09:31.073Z,84.23
2019-01-29T03:11:58.486Z,84.20
2019-01-29T03:14:25.938Z,84.22
2019-01-29T03:16:53.314Z,84.13
2019-01-29T03:19:20.685Z,84.23
2019-01-29T03:21:48.057Z,84.12
2019-01-29T03:24:15.411Z,84.00
2019-01-29T03:26:42.791Z,84.02
2019-01-29T03:29:10.136Z,83.81
2019-01-29T03:31:37.488Z,83.55
2019-01-29T03:34:04.932Z,83.59
2019-01-29T03:36:32.389Z,83.41
2019-01-29T03:38:59.817Z,83.04
2019-01-29T03:41:27.210Z,83.25
2019-01-29T03:43:54.568Z,83.14
2019-01-29T03:46:21.924Z,83.36
2019-01-29T03:48:49.298Z,83.32
2019-01-29T03:51:16.644Z,83.33
2019-01-29T03:53:44.015Z,83.48
2019-01-29T03:56:11.395Z,83.22
2019-01-29T03:58:38.750Z,83.16
2019-01-29T04:01:06.179Z,83.35
2019-01-29T04:03:33.566Z,83.07
2019-01-29T04:06:00.973Z,83.17
2019-01-29T04:08:28.343Z,83.18
2019-01-29T04:10:55.751Z,82.92
2019-01-29T04:13:23.201Z,82.86
2019-01-29T04:15:50.583Z,82.88
2019-01-29T04:18:17.970Z,82.95
2019-01-29T04:20:45.321Z,83.16
2019-01-29T04:23:12.706Z,83.01
2019-01-29T04:25:40.078Z,82.93
2019-01-29T04:28:07.570Z,82.89
2019-01-29T04:30:34.937Z,82.84
2019-01-29T04:33:02.338Z,82.71
2019-01-29T04:35:29.712Z,82.71
2019-01-29T04:37:57.134Z,82.47
2019-01-29T04:40:24.470Z,82.46
2019-01-29T04:42:51.831Z,82.52
2019-01-29T04:45:19.205Z,82.42
2019-01-29T04:47:46.644Z,82.28
2019-01-29T04:50:15.260Z,82.48
2019-01-29T04:52:43.150Z,82.60
2019-01-29T04:55:11.394Z,82.49
2019-01-29T04:57:38.753Z,82.81
2019-01-29T05:00:07.939Z,83.06
2019-01-29T05:02:35.321Z,83.33
2019-01-29T05:05:03.611Z,83.91
2019-01-29T05:07:30.959Z,83.78
2019-01-29T05:09:58.314Z,83.66
2019-01-29T05:12:25.963Z,83.86
2019-01-29T05:14:53.315Z,83.49
2019-01-29T05:17:20.995Z,83.06
2019-01-29T05:19:48.383Z,83.51
2019-01-29T05:22:15.742Z,83.49
2019-01-29T05:24:43.250Z,83.60
2019-01-29T05:27:10.716Z,83.36
2019-01-29T05:29:38.088Z,83.11
2019-01-29T05:32:05.462Z,82.89
2019-01-29T05:34:32.910Z,82.69
2019-01-29T05:37:02.586Z,82.35
2019-01-29T05:39:30.067Z,82.53
2019-01-29T05:41:57.420Z,82.73
2019-01-29T05:44:24.770Z,82.66
2019-01-29T05:46:52.297Z,82.98
2019-01-29T05:49:19.853Z,82.48
2019-01-29T05:51:47.237Z,82.31
2019-01-29T05:54:16.352Z,82.17
2019-01-29T05:56:43.953Z,81.54
2019-01-29T05:59:11.301Z,81.36
2019-01-29T06:01:38.686Z,81.24
2019-01-29T06:04:06.070Z,81.27
2019-01-29T06:06:33.450Z,81.48
2019-01-29T06:09:01.064Z,81.37
2019-01-29T06:11:28.402Z,81.60
2019-01-29T06:13:55.767Z,81.76
2019-01-29T06:16:23.145Z,82.09
2019-01-29T06:18:50.519Z,82.36
2019-01-29T06:21:17.924Z,82.03
2019-01-29T06:23:45.705Z,81.92
2019-01-29T06:26:13.078Z,81.80
2019-01-29T06:28:40.454Z,81.79
2019-01-29T06:31:07.867Z,81.90
2019-01-29T06:33:35.228Z,81.50
2019-01-29T06:36:02.576Z,81.47
2019-01-29T06:38:30.063Z,81.66
2019-01-29T06:40:57.464Z,81.77
2019-01-29T06:43:24.815Z,81.78
2019-01-29T06:45:52.191Z,81.48
2019-01-29T06:48:19.553Z,81.28
2019-01-29T06:50:46.907Z,81.29
2019-01-29T06:53:14.286Z,81.27
2019-01-29T06:55:41.657Z,81.34
2019-01-29T06:58:09.041Z,81.40
2019-01-29T07:00:36.421Z,81.36
2019-01-29T07:03:03.901Z,81.43
2019-01-29T07:05:31.243Z,81.51
2019-01-29T07:07:58.614Z,81.40
2019-01-29T07:10:26.758Z,81.14
2019-01-29T07:12:54.106Z,81.06
2019-01-29T07:15:40.778Z,81.03
2019-01-29T07:18:42.961Z,80.75
2019-01-29T07:21:10.593Z,80.78
2019-01-29T07:23:37.983Z,80.44
2019-01-29T07:26:05.515Z,80.39
2019-01-29T07:28:32.901Z,80.05
2019-01-29T07:31:00.275Z,80.05
2019-01-29T07:33:27.651Z,80.12
2019-01-29T07:35:55.014Z,79.54
2019-01-29T07:38:22.369Z,79.56
2019-01-29T07:40:49.771Z,79.43
2019-01-29T07:43:17.157Z,79.40
2019-01-29T07:45:44.551Z,79.16
2019-01-29T07:48:11.974Z,78.73
2019-01-29T07:50:39.335Z,78.18
2019-01-29T07:53:06.838Z,78.39
2019-01-29T07:55:34.288Z,78.35
2019-01-29T07:58:01.739Z,78.12
2019-01-29T08:00:29.119Z,77.85
2019-01-29T08:02:56.497Z,78.08
2019-01-29T08:05:23.874Z,78.14
2019-01-29T08:07:51.291Z,78.20
2019-01-29T08:10:18.646Z,77.82
2019-01-29T08:12:46.070Z,77.46
2019-01-29T08:15:13.549Z,76.72
2019-01-29T08:17:40.928Z,76.24
2019-01-29T08:20:08.902Z,75.90
2019-01-29T08:22:36.373Z,74.92
2019-01-29T08:25:04.015Z,75.21
2019-01-29T08:27:31.370Z,75.79
2019-01-29T08:29:58.739Z,75.83
2019-01-29T08:32:26.155Z,75.84
2019-01-29T08:34:53.522Z,75.68
2019-01-29T08:37:20.897Z,75.56
2019-01-29T08:39:48.729Z,75.66
2019-01-29T08:42:16.666Z,75.35
2019-01-29T08:44:44.076Z,75.25
2019-01-29T08:47:11.766Z,75.32
2019-01-29T08:49:39.152Z,74.81
2019-01-29T08:52:06.523Z,75.05
2019-01-29T08:54:33.915Z,75.06
2019-01-29T08:57:01.375Z,74.92
2019-01-29T08:59:28.750Z,75.01
2019-01-29T09:01:56.133Z,74.73
2019-01-29T09:04:23.511Z,74.33
2019-01-29T09:06:50.998Z,74.08
2019-01-29T09:09:19.664Z,74.18
2019-01-29T09:11:47.122Z,74.03
2019-01-29T09:14:14.485Z,73.80
2019-01-29T09:16:41.893Z,73.85
2019-01-29T09:19:09.386Z,74.02
2019-01-29T09:21:36.795Z,74.10
2019-01-29T09:24:04.171Z,73.61
2019-01-29T09:26:31.792Z,73.93
2019-01-29T09:28:59.134Z,73.81
2019-01-29T09:31:26.569Z,73.20
2019-01-29T09:33:53.969Z,72.37
2019-01-29T09:36:21.317Z,73.33
2019-01-29T09:38:48.681Z,73.06
2019-01-29T09:41:16.146Z,72.62
2019-01-29T09:43:43.780Z,72.79
2019-01-29T09:46:11.149Z,72.12
2019-01-29T09:48:38.516Z,70.63
2019-01-29T09:51:05.893Z,71.39
2019-01-29T09:53:33.270Z,70.96
2019-01-29T09:56:00.637Z,70.78
2019-01-29T09:58:28.023Z,70.47
2019-01-29T10:00:55.423Z,69.12
2019-01-29T10:03:22.783Z,69.03
2019-01-29T10:05:50.149Z,69.00
2019-01-29T10:08:17.610Z,68.28
2019-01-29T10:10:44.986Z,67.80
2019-01-29T10:13:12.353Z,67.78
2019-01-29T10:15:39.738Z,68.36
2019-01-29T10:18:07.158Z,67.84
2019-01-29T10:20:34.615Z,67.07
2019-01-29T10:23:02.011Z,65.09
2019-01-29T10:25:37.110Z,64.89
2019-01-29T10:27:58.690Z,63.59
2019-01-29T10:30:26.451Z,63.14
2019-01-29T10:32:54.041Z,64.27
2019-01-29T10:35:21.649Z,63.95
2019-01-29T10:37:48.996Z,64.67
2019-01-29T10:40:17.683Z,63.47
2019-01-29T10:42:45.039Z,62.20
2019-01-29T10:45:13.655Z,63.40
2019-01-29T10:47:41.014Z,62.83
2019-01-29T10:50:09.487Z,63.26
2019-01-29T10:52:37.274Z,62.20
2019-01-29T10:55:05.011Z,61.45
2019-01-29T10:57:32.381Z,61.54
2019-01-29T10:59:59.792Z,61.03
2019-01-29T11:02:27.247Z,59.56
2019-01-29T11:04:54.685Z,57.14
2019-01-29T11:07:22.039Z,58.48
2019-01-29T11:09:49.454Z,56.79
2019-01-29T11:12:16.835Z,57.18
2019-01-29T11:14:44.211Z,53.49
2019-01-29T11:17:11.570Z,44.71
2019-01-29T11:19:39.029Z,41.51
2019-01-29T11:22:06.610Z,37.70
2019-01-29T11:24:34.341Z,31.22
2019-01-29T11:27:01.718Z,31.82
2019-01-29T11:29:29.057Z,36.07
2019-01-29T11:31:56.487Z,37.81
2019-01-29T11:34:23.894Z,41.72
2019-01-29T11:36:51.265Z,41.24
2019-01-29T11:39:18.739Z,40.39
2019-01-29T11:41:46.102Z,40.21
2019-01-29T11:44:13.581Z,38.81
2019-01-29T11:46:41.236Z,39.58
2019-01-29T11:49:08.627Z,41.94
2019-01-29T11:51:36.082Z,43.58
2019-01-29T11:54:03.791Z,46.75
2019-01-29T11:56:31.194Z,46.50
2019-01-29T11:58:58.628Z,46.40
2019-01-29T12:01:26.945Z,46.87
2019-01-29T12:03:54.303Z,41.82
2019-01-29T12:06:21.708Z,43.87
2019-01-29T12:08:49.058Z,43.99
2019-01-29T12:11:16.453Z,44.93
2019-01-29T12:13:43.830Z,46.43
2019-01-29T12:16:11.191Z,44.82
2019-01-29T12:18:38.613Z,46.88
2019-01-29T12:21:05.981Z,47.65
2019-01-29T12:23:33.681Z,46.78
2019-01-29T12:26:01.043Z,47.23
2019-01-29T12:28:28.526Z,48.07
2019-01-29T12:30:55.887Z,47.08
2019-01-29T12:33:23.226Z,47.13
2019-01-29T12:35:50.660Z,46.80
2019-01-29T12:38:18.006Z,48.75
2019-01-29T12:40:45.412Z,49.97
2019-01-29T12:43:12.794Z,48.48
2019-01-29T12:45:40.195Z,48.76
2019-01-29T12:48:07.567Z,49.31
2019-01-29T12:50:34.914Z,48.69
2019-01-29T12:53:07.342Z,49.21
2019-01-29T12:55:34.894Z,49.22
2019-01-29T12:58:02.399Z,48.87
2019-01-29T13:00:34.309Z,48.24
2019-01-29T13:03:01.690Z,47.99
2019-01-29T13:05:29.133Z,46.76
2019-01-29T13:07:56.709Z,48.41
2019-01-29T13:10:24.176Z,48.97
2019-01-29T13:12:51.811Z,49.49
2019-01-29T13:15:20.658Z,50.73
2019-01-29T13:17:48.110Z,50.68
2019-01-29T13:20:15.479Z,51.11
2019-01-29T13:22:42.863Z,51.24
2019-01-29T13:25:10.367Z,50.27
2019-01-29T13:27:37.712Z,50.14
2019-01-29T13:30:06.635Z,50.83
2019-01-29T13:32:33.981Z,50.54
2019-01-29T13:35:01.368Z,50.81
2019-01-29T13:37:28.872Z,52.79
2019-01-29T13:39:56.230Z,51.15
2019-01-29T13:42:23.990Z,51.71
2019-01-29T13:44:51.362Z,51.34
2019-01-29T13:47:18.706Z,50.77
2019-01-29T13:49:46.102Z,51.42
2019-01-29T13:52:13.459Z,54.10
2019-01-29T13:54:40.833Z,54.35
2019-01-29T13:57:08.314Z,54.39
2019-01-29T13:59:35.719Z,53.95
2019-01-29T14:02:03.342Z,54.26
2019-01-29T14:04:30.722Z,54.94
2019-01-29T14:06:58.121Z,54.20
2019-01-29T14:09:25.569Z,55.76
2019-01-29T14:11:52.921Z,55.83
2019-01-29T14:14:20.349Z,55.88
2019-01-29T14:16:47.700Z,56.07
2019-01-29T14:19:15.158Z,55.25
2019-01-29T14:21:42.538Z,55.65
2019-01-29T14:24:09.923Z,55.62
2019-01-29T14:26:37.654Z,55.11
2019-01-29T14:29:05.090Z,55.32
2019-01-29T14:31:32.481Z,56.45
2019-01-29T14:33:59.906Z,56.90
2019-01-29T14:36:27.360Z,56.68
2019-01-29T14:39:09.091Z,57.16
2019-01-29T14:41:36.497Z,57.09
2019-01-29T14:44:05.475Z,56.75
2019-01-29T14:46:32.935Z,57.30
2019-01-29T14:49:00.389Z,58.26
2019-01-29T14:51:27.764Z,57.88
2019-01-29T14:53:55.165Z,57.77
2019-01-29T14:56:22.512Z,58.26
2019-01-29T14:58:49.890Z,58.06
2019-01-29T15:01:17.313Z,59.17
2019-01-29T15:03:44.755Z,57.49
2019-01-29T15:06:12.247Z,58.07
2019-01-29T15:08:39.613Z,58.54
2019-01-29T15:11:07.106Z,57.98
2019-01-29T15:13:34.515Z,58.38
2019-01-29T15:16:09.277Z,57.95
2019-01-29T15:18:40.098Z,57.80
2019-01-29T15:21:07.559Z,57.11
2019-01-29T15:23:34.905Z,58.07
2019-01-29T15:26:02.327Z,58.54
2019-01-29T15:28:29.721Z,59.14
2019-01-29T15:30:57.104Z,59.44
2019-01-29T15:33:24.482Z,59.55
2019-01-29T15:35:51.866Z,59.84
2019-01-29T15:38:19.358Z,60.99
2019-01-29T15:40:46.734Z,60.92
2019-01-29T15:43:14.145Z,61.10
2019-01-29T15:45:41.630Z,61.76
2019-01-29T15:48:08.986Z,61.51
2019-01-29T15:50:36.464Z,62.93
2019-01-29T15:53:04.501Z,62.95
2019-01-29T15:55:31.921Z,63.82
2019-01-29T15:57:59.290Z,63.65
2019-01-29T16:00:27.686Z,63.75
2019-01-29T16:02:55.030Z,64.23
2019-01-29T16:05:23.239Z,64.50
2019-01-29T16:07:50.641Z,64.50
2019-01-29T16:10:19.848Z,64.51
2019-01-29T16:12:47.237Z,64.27
2019-01-29T16:15:15.567Z,64.29
2019-01-29T16:17:42.950Z,64.09
2019-01-29T16:20:11.758Z,64.33
2019-01-29T16:22:39.157Z,64.94
2019-01-29T16:25:07.529Z,65.65
2019-01-29T16:27:34.966Z,66.15
2019-01-29T16:30:02.354Z,65.84
2019-01-29T16:32:29.793Z,65.91
2019-01-29T16:34:57.514Z,66.91
2019-01-29T16:37:25.783Z,67.24
2019-01-29T16:39:53.136Z,67.49
2019-01-29T16:42:20.599Z,67.77
2019-01-29T16:44:48.010Z,68.16
2019-01-29T16:47:15.570Z,68.55
2019-01-29T16:49:42.997Z,69.07
2019-01-29T16:52:10.472Z,68.53
2019-01-29T16:54:37.874Z,68.28
2019-01-29T16:57:05.219Z,68.48
2019-01-29T16:59:32.806Z,68.74
2019-01-29T17:02:00.196Z,68.65
2019-01-29T17:04:28.569Z,68.67
2019-01-29T17:06:56.189Z,68.76
2019-01-29T17:09:23.558Z,69.09
2019-01-29T17:11:50.927Z,69.33
2019-01-29T17:14:18.439Z,69.39
2019-01-29T17:16:45.842Z,69.73
2019-01-29T17:19:13.229Z,70.48
2019-01-29T17:21:40.614Z,70.91
2019-01-29T17:24:08.055Z,71.08
2019-01-29T17:26:35.419Z,70.94
2019-01-29T17:29:02.924Z,71.00
2019-01-29T17:31:30.348Z,71.15
2019-01-29T17:33:57.696Z,71.20
2019-01-29T17:36:25.122Z,71.48
2019-01-29T17:38:52.635Z,71.67
2019-01-29T17:41:20.043Z,71.48
2019-01-29T17:43:47.679Z,71.93
2019-01-29T17:46:15.121Z,71.78
2019-01-29T17:48:42.542Z,72.00
2019-01-29T17:51:09.945Z,72.04
2019-01-29T17:53:37.471Z,71.80
2019-01-29T17:56:04.952Z,71.80
2019-01-29T17:58:32.491Z,71.76
2019-01-29T18:01:00.990Z,71.50
2019-01-29T18:03:28.440Z,71.47
2019-01-29T18:05:55.938Z,71.42
2019-01-29T18:08:23.377Z,72.06
2019-01-29T18:10:50.747Z,72.04
2019-01-29T18:13:18.139Z,71.99
2019-01-29T18:15:45.578Z,71.75
2019-01-29T18:18:12.966Z,71.84
2019-01-29T18:20:40.484Z,71.84
2019-01-29T18:23:07.936Z,71.72
2019-01-29T18:25:35.395Z,71.88
2019-01-29T18:28:03.122Z,71.90
2019-01-29T18:30:31.189Z,71.93
2019-01-29T18:32:58.706Z,72.04
2019-01-29T18:35:26.206Z,71.73
2019-01-29T18:37:53.712Z,71.34
2019-01-29T18:40:25.531Z,71.04
2019-01-29T18:42:53.078Z,71.25
2019-01-29T18:45:20.554Z,71.76
2019-01-29T18:47:48.036Z,71.30
2019-01-29T18:50:15.815Z,71.54
2019-01-29T18:52:43.758Z,71.49
2019-01-29T18:55:11.367Z,71.48
2019-01-29T18:57:38.752Z,71.48
2019-01-29T19:00:08.270Z,71.58
2019-01-29T19:02:35.705Z,71.34
2019-01-29T19:05:03.132Z,71.37
2019-01-29T19:07:30.615Z,71.09
2019-01-29T19:09:58.128Z,71.40
2019-01-29T19:12:25.535Z,71.30
2019-01-29T19:14:52.935Z,71.36
2019-01-29T19:17:20.355Z,71.60
2019-01-29T19:19:47.741Z,71.38
2019-01-29T19:22:15.271Z,71.35
2019-01-29T19:24:42.697Z,70.95
2019-01-29T19:27:10.113Z,71.11
2019-01-29T19:29:37.523Z,70.98
2019-01-29T19:32:05.006Z,71.16
2019-01-29T19:34:32.394Z,71.23
2019-01-29T19:36:59.812Z,71.56
2019-01-29T19:39:27.382Z,71.59
2019-01-29T19:41:54.793Z,71.33
2019-01-29T19:44:22.287Z,71.05
2019-01-29T19:46:50.160Z,71.02
2019-01-29T19:49:17.614Z,70.76
2019-01-29T19:51:45.156Z,70.83
2019-01-29T19:54:12.582Z,70.94
2019-01-29T19:56:40.130Z,70.64
2019-01-29T19:59:07.645Z,70.32
2019-01-29T20:01:35.537Z,70.32
2019-01-29T20:04:03.540Z,70.47
2019-01-29T20:06:31.182Z,70.48
2019-01-29T20:08:58.723Z,70.48
2019-01-29T20:11:26.235Z,70.04
2019-01-29T20:13:53.650Z,69.51
2019-01-29T20:16:21.186Z,69.14
2019-01-29T20:18:49.151Z,69.27
2019-01-29T20:21:16.752Z,69.25
2019-01-29T20:23:44.144Z,69.15
2019-01-29T20:26:11.551Z,68.78
2019-01-29T20:28:42.522Z,68.45
2019-01-29T20:31:08.263Z,68.65
2019-01-29T20:33:35.701Z,68.30
2019-01-29T20:36:03.185Z,68.48
2019-01-29T20:38:35.146Z,68.23
2019-01-29T20:41:00.002Z,68.10
2019-01-29T20:43:27.765Z,68.16
2019-01-29T20:45:55.263Z,68.49
2019-01-29T20:48:22.702Z,67.95
2019-01-29T20:50:50.215Z,68.03
2019-01-29T20:53:17.692Z,67.63
2019-01-29T20:55:45.086Z,67.70
2019-01-29T20:58:12.467Z,67.68
2019-01-29T21:00:40.014Z,67.73
2019-01-29T21:03:07.432Z,68.21
2019-01-29T21:05:34.826Z,68.36
2019-01-29T21:08:02.317Z,68.59
2019-01-29T21:10:29.777Z,68.66
2019-01-29T21:12:57.283Z,68.73
2019-01-29T21:15:24.785Z,68.78
2019-01-29T21:17:52.692Z,68.99
2019-01-29T21:20:21.010Z,68.80
2019-01-29T21:22:48.391Z,68.66
2019-01-29T21:25:16.071Z,68.76
2019-01-29T21:27:43.556Z,68.97
2019-01-29T21:30:15.930Z,69.17
2019-01-29T21:32:43.294Z,69.20
2019-01-29T21:35:10.816Z,69.28
2019-01-29T21:37:38.353Z,69.40
2019-01-29T21:40:06.607Z,69.43
2019-01-29T21:42:34.154Z,69.47
2019-01-29T21:45:01.651Z,69.41
2019-01-29T21:47:29.086Z,69.29
2019-01-29T21:49:56.635Z,69.44
2019-01-29T21:52:24.114Z,69.22
2019-01-29T21:54:51.763Z,69.14
2019-01-29T21:57:19.137Z,69.14
2019-01-29T21:59:46.599Z,69.13
2019-01-29T22:02:14.044Z,69.06
2019-01-29T22:04:41.532Z,69.40
2019-01-29T22:07:09.027Z,69.21
2019-01-29T22:09:36.426Z,69.36
2019-01-29T22:12:03.933Z,69.37
2019-01-29T22:14:31.914Z,69.42
2019-01-29T22:16:59.387Z,69.20
2019-01-29T22:19:26.838Z,69.32
2019-01-29T22:21:54.521Z,69.07
2019-01-29T22:24:21.907Z,69.18
2019-01-29T22:26:49.398Z,69.01
2019-01-29T22:29:23.197Z,68.67
2019-01-29T22:31:46.151Z,69.13
2019-01-29T22:34:13.547Z,69.12
2019-01-29T22:36:40.964Z,69.43
2019-01-29T22:39:08.463Z,69.09
2019-01-29T22:41:36.247Z,69.21
2019-01-29T22:44:03.924Z,69.43
2019-01-29T22:46:31.476Z,69.63
2019-01-29T22:48:58.978Z,69.53
2019-01-29T22:51:26.447Z,69.46
2019-01-29T22:53:53.921Z,69.34
2019-01-29T22:56:21.421Z,69.12
2019-01-29T22:58:48.903Z,68.60
2019-01-29T23:01:42.056Z,68.33
2019-01-29T23:04:13.840Z,67.88
2019-01-29T23:06:55.002Z,68.51
2019-01-29T23:09:22.377Z,68.23
2019-01-29T23:11:49.741Z,68.62
2019-01-29T23:14:18.351Z,68.37
2019-01-29T23:16:45.756Z,68.01
2019-01-29T23:19:13.155Z,68.93
2019-01-29T23:21:40.534Z,68.23
2019-01-29T23:24:08.024Z,68.02
2019-01-29T23:26:35.397Z,68.28
2019-01-29T23:29:02.762Z,68.30
2019-01-29T23:31:30.141Z,68.22
2019-01-29T23:33:57.883Z,68.27
2019-01-29T23:36:25.343Z,69.14
2019-01-29T23:38:52.722Z,69.57
2019-01-29T23:41:20.433Z,70.32
2019-01-29T23:43:47.790Z,71.33
2019-01-29T23:46:15.187Z,71.61
2019-01-29T23:48:42.649Z,71.56
2019-01-29T23:51:10.010Z,71.17
2019-01-29T23:53:37.387Z,71.18
2019-01-29T23:56:04.869Z,71.16
2019-01-29T23:58:32.270Z,71.01
